»·PEaware :: N610SP KCMA-KLAS

N610SP :: KCMA-KLAS

FLIGHT INFORMATION

Flight Status: Arrived
Operator: Privately registered:
United States
More flights under this callsign
Pilot: Kevin S. (26378)
Aircraft: SOCATA TBM-900
(TBM9)
More flights by this aircraft type
Origin: KCMA Camarillo
United States
Destination: KLAS McCarran Intl
United States
More flights between these airports :: More routes between these airports
Route: +FIM PMD DAG CRESO4
File this flight plan on PilotEdge
Remarks:
Altitude:
(Current/Filed)
24,000ft
Speed:
(Current/Filed)
250kts
Departed: 28-Dec-19 06:21 PM
Arrived: 28-Dec-19 07:27 PM
Distance/Time
Traveled:
223nm/1:06
Distance/Time
To Go:
Arrived

Flight Plot

Page will automatically refresh every two minutes.

Flight plan parsing failed; only flown route is shown


Map Options




Map Legend


Flown Route
Filed Route
Departure Airport
Arrival Airport
Navaid (VOR, NDB)
Fix

Horizontal Profiles

Position Reports

Time Latitude Longitude Heading Altitude Ground
Speed
28-Dec-19 17:49 34.210349 -119.076338 90 75ft 0kts
28-Dec-19 17:50 34.210349 -119.076338 90 75ft 0kts
28-Dec-19 17:51 34.210349 -119.076338 90 75ft 0kts
28-Dec-19 17:52 34.210349 -119.076338 90 75ft 0kts
28-Dec-19 17:53 34.210349 -119.076338 90 75ft 0kts
28-Dec-19 17:54 34.210349 -119.076338 90 75ft 0kts
28-Dec-19 17:55 34.210349 -119.076338 90 75ft 0kts
28-Dec-19 17:56 34.210349 -119.076338 90 75ft 0kts
28-Dec-19 17:57 34.210349 -119.076338 90 75ft 0kts
28-Dec-19 17:58 34.210349 -119.076338 90 75ft 0kts
28-Dec-19 17:59 34.210349 -119.076338 90 75ft 0kts
28-Dec-19 18:00 34.210349 -119.076338 90 75ft 0kts
28-Dec-19 18:01 34.210349 -119.076338 90 75ft 0kts
28-Dec-19 18:02 34.210349 -119.076338 90 75ft 0kts
28-Dec-19 18:03 34.210349 -119.076338 90 75ft 0kts
28-Dec-19 18:04 34.210349 -119.076338 90 75ft 0kts
28-Dec-19 18:05 34.210349 -119.076338 90 75ft 0kts
28-Dec-19 18:06 34.210349 -119.076338 90 75ft 0kts
28-Dec-19 18:07 34.210349 -119.076338 90 75ft 0kts
28-Dec-19 18:08 34.210349 -119.076338 90 75ft 0kts
28-Dec-19 18:09 34.210349 -119.076338 90 75ft 0kts
28-Dec-19 18:10 34.210349 -119.076338 90 75ft 0kts
28-Dec-19 18:11 34.210349 -119.076338 90 75ft 0kts
28-Dec-19 18:12 34.210349 -119.076338 90 75ft 0kts
28-Dec-19 18:13 34.210834 -119.076117 334 75ft 0kts
28-Dec-19 18:14 34.210936 -119.079870 271 75ft 33kts
28-Dec-19 18:15 34.210936 -119.083538 269 75ft 7kts
28-Dec-19 18:16 34.212743 -119.084636 0 75ft 0kts
28-Dec-19 18:17 34.212743 -119.084636 0 75ft 0kts
28-Dec-19 18:18 34.212743 -119.084636 0 75ft 0kts
28-Dec-19 18:19 34.213769 -119.086219 273 75ft 35kts
28-Dec-19 18:20 34.214567 -119.119920 287 1913ft 129kts
28-Dec-19 18:21 34.223813 -119.171282 287 3641ft 174kts
28-Dec-19 18:22 34.223023 -119.228119 262 5105ft 156kts
28-Dec-19 18:23 34.229896 -119.258819 17 6448ft 110kts
28-Dec-19 18:24 34.237870 -119.207824 65 8156ft 184kts
28-Dec-19 18:25 34.256480 -119.147401 55 9739ft 197kts
28-Dec-19 18:26 34.279468 -119.085791 55 11669ft 201kts
28-Dec-19 18:27 34.302456 -119.024998 56 13717ft 198kts
28-Dec-19 18:28 34.325204 -118.964737 55 15774ft 198kts
28-Dec-19 18:29 34.347471 -118.905682 55 18243ft 192kts
28-Dec-19 18:30 34.368331 -118.846905 55 20758ft 191kts
28-Dec-19 18:31 34.388386 -118.787918 54 23036ft 190kts
28-Dec-19 18:32 34.410551 -118.723035 55 24048ft 251kts
28-Dec-19 18:33 34.439778 -118.636472 57 24010ft 294kts
28-Dec-19 18:34 34.471401 -118.542601 57 24024ft 304kts
28-Dec-19 18:35 34.503287 -118.447755 57 24039ft 306kts
28-Dec-19 18:36 34.535316 -118.352210 57 24038ft 306kts
28-Dec-19 18:37 34.566268 -118.259603 58 24052ft 306kts
28-Dec-19 18:38 34.597916 -118.164585 57 24043ft 304kts
28-Dec-19 18:39 34.629343 -118.070008 57 24043ft 303kts
28-Dec-19 18:40 34.652826 -117.970412 63 24043ft 309kts
28-Dec-19 18:41 34.675891 -117.869446 63 24043ft 309kts
28-Dec-19 18:42 34.698807 -117.768722 63 23998ft 310kts
28-Dec-19 18:43 34.721562 -117.668250 63 23997ft 308kts
28-Dec-19 18:44 34.744165 -117.568100 63 23997ft 307kts
28-Dec-19 18:45 34.766495 -117.468726 63 24034ft 306kts
28-Dec-19 18:46 34.788945 -117.368383 63 24034ft 307kts
28-Dec-19 18:47 34.810962 -117.269575 63 24030ft 307kts
28-Dec-19 18:48 34.833288 -117.168947 63 24031ft 308kts
28-Dec-19 18:49 34.855497 -117.068429 63 24049ft 308kts
28-Dec-19 18:50 34.877681 -116.967594 63 24049ft 308kts
28-Dec-19 18:51 34.899732 -116.866922 63 24049ft 308kts
28-Dec-19 18:52 34.921785 -116.765794 63 24049ft 308kts
28-Dec-19 18:53 34.943641 -116.665107 62 24048ft 306kts
28-Dec-19 18:54 34.967476 -116.566416 48 24040ft 290kts
28-Dec-19 18:55 35.005923 -116.480455 49 24048ft 289kts
28-Dec-19 18:56 35.044868 -116.392808 49 23314ft 302kts
28-Dec-19 18:57 35.083111 -116.306285 50 22906ft 292kts
28-Dec-19 18:58 35.123088 -116.215816 51 20674ft 311kts
28-Dec-19 18:59 35.162628 -116.126002 51 18383ft 293kts
28-Dec-19 19:00 35.200725 -116.039370 52 16704ft 291kts
28-Dec-19 19:02 35.239356 -115.951059 53 15027ft 295kts
28-Dec-19 19:03 35.278021 -115.862541 53 13335ft 293kts
28-Dec-19 19:04 35.317513 -115.777475 39 12018ft 267kts
28-Dec-19 19:05 35.365344 -115.714234 39 12052ft 245kts
28-Dec-19 19:06 35.411316 -115.652909 39 11956ft 243kts
28-Dec-19 19:07 35.457242 -115.591542 39 11671ft 250kts
28-Dec-19 19:08 35.502921 -115.530346 39 10079ft 224kts
28-Dec-19 19:09 35.541912 -115.478042 38 10008ft 203kts
28-Dec-19 19:10 35.580224 -115.426647 39 9823ft 211kts
28-Dec-19 19:11 35.620553 -115.372448 40 8338ft 214kts
28-Dec-19 19:12 35.659867 -115.319480 41 7009ft 204kts
28-Dec-19 19:13 35.693479 -115.274021 40 7036ft 153kts
28-Dec-19 19:14 35.723137 -115.233997 38 7009ft 164kts
28-Dec-19 19:15 35.753632 -115.192854 39 7005ft 162kts
28-Dec-19 19:16 35.788219 -115.162365 343 6777ft 154kts
28-Dec-19 19:17 35.822867 -115.179604 341 6331ft 144kts
28-Dec-19 19:18 35.861828 -115.199016 341 6008ft 154kts
28-Dec-19 19:19 35.899186 -115.217777 341 6004ft 149kts
28-Dec-19 19:20 35.936876 -115.235701 353 5949ft 137kts
28-Dec-19 19:21 35.969040 -115.224011 11 5913ft 92kts
28-Dec-19 19:21 35.989445 -115.217317 15 4068ft 117kts
28-Dec-19 19:22 36.012528 -115.206361 24 3669ft 108kts
28-Dec-19 19:24 36.039035 -115.191186 25 3123ft 94kts
28-Dec-19 19:24 36.051446 -115.184091 26 2799ft 82kts
28-Dec-19 19:25 36.066646 -115.175358 25 2422ft 88kts
28-Dec-19 19:27 36.081338 -115.167032 15 2095ft 25kts
28-Dec-19 19:27 36.084059 -115.167623 27 2095ft 16kts
28-Dec-19 19:28 36.084757 -115.168048 16 2095ft 0kts
28-Dec-19 19:29 36.084757 -115.168048 16 2095ft 0kts
28-Dec-19 19:30 36.084757 -115.168048 16 2095ft 0kts

Navigation Log

Ident Type
Flight plan parsing failed, navigation log unavailable